sensor_id;sensor_type;location;lat;lon;timestamp;temperature;humidity
48994;DHT22;34804;49.214;12.276;2022-07-03T00:00:04;12.80;84.80
48994;DHT22;34804;49.214;12.276;2022-07-03T00:02:31;12.90;84.50
48994;DHT22;34804;49.214;12.276;2022-07-03T00:04:58;12.80;84.10
48994;DHT22;34804;49.214;12.276;2022-07-03T00:07:25;12.60;83.70
48994;DHT22;34804;49.214;12.276;2022-07-03T00:09:51;12.60;84.00
48994;DHT22;34804;49.214;12.276;2022-07-03T00:12:18;12.60;84.20
48994;DHT22;34804;49.214;12.276;2022-07-03T00:14:45;12.60;84.70
48994;DHT22;34804;49.214;12.276;2022-07-03T00:17:12;12.40;84.60
48994;DHT22;34804;49.214;12.276;2022-07-03T00:19:39;12.20;84.80
48994;DHT22;34804;49.214;12.276;2022-07-03T00:22:07;12.30;85.30
48994;DHT22;34804;49.214;12.276;2022-07-03T00:27:17;12.40;85.00
48994;DHT22;34804;49.214;12.276;2022-07-03T00:29:45;12.40;85.10
48994;DHT22;34804;49.214;12.276;2022-07-03T00:32:25;12.40;85.10
48994;DHT22;34804;49.214;12.276;2022-07-03T00:34:54;12.50;85.00
48994;DHT22;34804;49.214;12.276;2022-07-03T00:37:22;12.40;85.30
48994;DHT22;34804;49.214;12.276;2022-07-03T00:39:49;12.40;85.00
48994;DHT22;34804;49.214;12.276;2022-07-03T00:42:17;12.30;84.90
48994;DHT22;34804;49.214;12.276;2022-07-03T00:44:48;12.20;85.00
48994;DHT22;34804;49.214;12.276;2022-07-03T00:47:25;12.20;84.70
48994;DHT22;34804;49.214;12.276;2022-07-03T00:49:55;11.90;85.10
48994;DHT22;34804;49.214;12.276;2022-07-03T00:52:24;11.80;86.40
48994;DHT22;34804;49.214;12.276;2022-07-03T00:54:58;11.70;86.10
48994;DHT22;34804;49.214;12.276;2022-07-03T00:57:27;11.60;86.50
48994;DHT22;34804;49.214;12.276;2022-07-03T00:59:54;11.50;86.90
48994;DHT22;34804;49.214;12.276;2022-07-03T01:02:46;11.60;87.30
48994;DHT22;34804;49.214;12.276;2022-07-03T01:05:43;11.50;87.60
48994;DHT22;34804;49.214;12.276;2022-07-03T01:08:21;11.80;87.00
48994;DHT22;34804;49.214;12.276;2022-07-03T01:16:44;12.00;86.30
48994;DHT22;34804;49.214;12.276;2022-07-03T01:30:12;12.30;85.60
48994;DHT22;34804;49.214;12.276;2022-07-03T01:35:13;11.90;83.70
48994;DHT22;34804;49.214;12.276;2022-07-03T01:37:40;11.60;84.40
48994;DHT22;34804;49.214;12.276;2022-07-03T01:40:08;11.60;85.10
48994;DHT22;34804;49.214;12.276;2022-07-03T01:42:36;11.70;85.40
48994;DHT22;34804;49.214;12.276;2022-07-03T01:45:09;11.70;85.90
48994;DHT22;34804;49.214;12.276;2022-07-03T01:47:40;11.80;86.30
48994;DHT22;34804;49.214;12.276;2022-07-03T01:50:12;11.80;85.20
48994;DHT22;34804;49.214;12.276;2022-07-03T01:52:43;11.50;84.30
48994;DHT22;34804;49.214;12.276;2022-07-03T01:55:13;11.40;85.30
48994;DHT22;34804;49.214;12.276;2022-07-03T01:57:49;11.30;85.30
48994;DHT22;34804;49.214;12.276;2022-07-03T02:00:18;11.10;86.40
48994;DHT22;34804;49.214;12.276;2022-07-03T02:03:02;10.90;87.30
48994;DHT22;34804;49.214;12.276;2022-07-03T02:08:00;10.80;87.60
48994;DHT22;34804;49.214;12.276;2022-07-03T02:10:33;10.80;88.70
48994;DHT22;34804;49.214;12.276;2022-07-03T02:13:06;10.80;87.70
48994;DHT22;34804;49.214;12.276;2022-07-03T02:15:34;10.90;87.30
48994;DHT22;34804;49.214;12.276;2022-07-03T02:18:41;11.10;86.80
48994;DHT22;34804;49.214;12.276;2022-07-03T02:21:17;11.10;86.90
48994;DHT22;34804;49.214;12.276;2022-07-03T02:26:39;11.20;86.90
48994;DHT22;34804;49.214;12.276;2022-07-03T02:29:12;11.30;87.10
48994;DHT22;34804;49.214;12.276;2022-07-03T02:31:45;11.30;87.30
48994;DHT22;34804;49.214;12.276;2022-07-03T02:34:17;11.30;86.70
48994;DHT22;34804;49.214;12.276;2022-07-03T02:36:47;11.30;87.10
48994;DHT22;34804;49.214;12.276;2022-07-03T02:39:35;11.30;86.80
48994;DHT22;34804;49.214;12.276;2022-07-03T02:42:04;11.10;85.10
48994;DHT22;34804;49.214;12.276;2022-07-03T02:44:59;10.90;85.30
48994;DHT22;34804;49.214;12.276;2022-07-03T02:47:46;10.80;86.10
48994;DHT22;34804;49.214;12.276;2022-07-03T02:50:22;10.70;86.90
48994;DHT22;34804;49.214;12.276;2022-07-03T02:53:15;10.60;85.70
48994;DHT22;34804;49.214;12.276;2022-07-03T02:55:46;10.30;86.40
48994;DHT22;34804;49.214;12.276;2022-07-03T03:01:09;10.30;87.70
48994;DHT22;34804;49.214;12.276;2022-07-03T03:03:58;10.20;88.40
48994;DHT22;34804;49.214;12.276;2022-07-03T03:06:29;10.10;88.40
48994;DHT22;34804;49.214;12.276;2022-07-03T03:09:03;10.10;88.60
48994;DHT22;34804;49.214;12.276;2022-07-03T03:11:44;10.20;89.70
48994;DHT22;34804;49.214;12.276;2022-07-03T03:14:13;10.30;89.30
48994;DHT22;34804;49.214;12.276;2022-07-03T03:16:50;10.30;88.90
48994;DHT22;34804;49.214;12.276;2022-07-03T03:19:20;10.20;88.30
48994;DHT22;34804;49.214;12.276;2022-07-03T03:22:32;10.30;88.60
48994;DHT22;34804;49.214;12.276;2022-07-03T03:25:04;10.40;88.20
48994;DHT22;34804;49.214;12.276;2022-07-03T03:27:31;10.40;88.10
48994;DHT22;34804;49.214;12.276;2022-07-03T03:29:58;10.50;87.90
48994;DHT22;34804;49.214;12.276;2022-07-03T03:32:26;10.50;87.70
48994;DHT22;34804;49.214;12.276;2022-07-03T03:34:54;10.60;87.90
48994;DHT22;34804;49.214;12.276;2022-07-03T03:37:21;10.50;87.90
48994;DHT22;34804;49.214;12.276;2022-07-03T03:39:47;10.30;88.10
48994;DHT22;34804;49.214;12.276;2022-07-03T03:42:14;10.30;88.10
48994;DHT22;34804;49.214;12.276;2022-07-03T03:44:41;10.20;88.20
48994;DHT22;34804;49.214;12.276;2022-07-03T03:47:08;10.30;88.50
48994;DHT22;34804;49.214;12.276;2022-07-03T03:49:35;10.50;88.30
48994;DHT22;34804;49.214;12.276;2022-07-03T03:52:02;10.70;88.90
48994;DHT22;34804;49.214;12.276;2022-07-03T03:54:29;10.80;88.40
48994;DHT22;34804;49.214;12.276;2022-07-03T03:56:56;10.80;87.50
48994;DHT22;34804;49.214;12.276;2022-07-03T03:59:22;10.80;86.60
48994;DHT22;34804;49.214;12.276;2022-07-03T04:01:49;10.70;87.10
48994;DHT22;34804;49.214;12.276;2022-07-03T04:04:16;10.60;88.10
48994;DHT22;34804;49.214;12.276;2022-07-03T04:06:45;10.60;87.80
48994;DHT22;34804;49.214;12.276;2022-07-03T04:09:12;10.60;88.00
48994;DHT22;34804;49.214;12.276;2022-07-03T04:11:39;10.70;88.30
48994;DHT22;34804;49.214;12.276;2022-07-03T04:14:06;10.80;88.10
48994;DHT22;34804;49.214;12.276;2022-07-03T04:16:33;10.80;87.90
48994;DHT22;34804;49.214;12.276;2022-07-03T04:19:00;10.80;88.50
48994;DHT22;34804;49.214;12.276;2022-07-03T04:21:27;10.80;89.00
48994;DHT22;34804;49.214;12.276;2022-07-03T04:23:54;10.80;89.40
48994;DHT22;34804;49.214;12.276;2022-07-03T04:26:21;11.00;89.40
48994;DHT22;34804;49.214;12.276;2022-07-03T04:28:48;11.20;89.10
48994;DHT22;34804;49.214;12.276;2022-07-03T04:31:14;11.30;89.30
48994;DHT22;34804;49.214;12.276;2022-07-03T04:33:41;11.40;88.50
48994;DHT22;34804;49.214;12.276;2022-07-03T04:36:13;11.60;88.40
48994;DHT22;34804;49.214;12.276;2022-07-03T04:38:40;11.70;88.70
48994;DHT22;34804;49.214;12.276;2022-07-03T04:41:07;11.90;88.80
48994;DHT22;34804;49.214;12.276;2022-07-03T04:43:33;12.00;88.60
48994;DHT22;34804;49.214;12.276;2022-07-03T04:46:00;12.10;88.50
48994;DHT22;34804;49.214;12.276;2022-07-03T04:48:28;12.20;88.90
48994;DHT22;34804;49.214;12.276;2022-07-03T04:50:56;12.30;89.20
48994;DHT22;34804;49.214;12.276;2022-07-03T04:53:23;12.40;89.20
48994;DHT22;34804;49.214;12.276;2022-07-03T04:55:50;12.50;88.50
48994;DHT22;34804;49.214;12.276;2022-07-03T04:58:17;12.70;88.90
48994;DHT22;34804;49.214;12.276;2022-07-03T05:00:45;12.80;88.40
48994;DHT22;34804;49.214;12.276;2022-07-03T05:03:12;12.80;87.90
48994;DHT22;34804;49.214;12.276;2022-07-03T05:05:39;13.00;87.60
48994;DHT22;34804;49.214;12.276;2022-07-03T05:08:06;13.10;87.20
48994;DHT22;34804;49.214;12.276;2022-07-03T05:10:33;13.30;87.20
48994;DHT22;34804;49.214;12.276;2022-07-03T05:13:00;13.30;86.60
48994;DHT22;34804;49.214;12.276;2022-07-03T05:15:29;13.40;86.50
48994;DHT22;34804;49.214;12.276;2022-07-03T05:17:56;13.40;86.80
48994;DHT22;34804;49.214;12.276;2022-07-03T05:20:22;13.50;86.60
48994;DHT22;34804;49.214;12.276;2022-07-03T05:22:59;13.60;86.60
48994;DHT22;34804;49.214;12.276;2022-07-03T05:25:27;13.80;86.20
48994;DHT22;34804;49.214;12.276;2022-07-03T05:27:54;13.80;85.90
48994;DHT22;34804;49.214;12.276;2022-07-03T05:30:22;13.90;85.70
48994;DHT22;34804;49.214;12.276;2022-07-03T05:32:49;13.90;85.40
48994;DHT22;34804;49.214;12.276;2022-07-03T05:35:16;14.00;85.70
48994;DHT22;34804;49.214;12.276;2022-07-03T05:37:43;14.20;85.90
48994;DHT22;34804;49.214;12.276;2022-07-03T05:40:10;14.40;85.70
48994;DHT22;34804;49.214;12.276;2022-07-03T05:42:37;14.50;84.90
48994;DHT22;34804;49.214;12.276;2022-07-03T05:45:04;14.60;83.60
48994;DHT22;34804;49.214;12.276;2022-07-03T05:47:31;14.70;83.40
48994;DHT22;34804;49.214;12.276;2022-07-03T05:49:58;14.80;83.90
48994;DHT22;34804;49.214;12.276;2022-07-03T05:52:25;14.90;83.20
48994;DHT22;34804;49.214;12.276;2022-07-03T05:54:51;15.10;83.70
48994;DHT22;34804;49.214;12.276;2022-07-03T05:57:18;15.20;83.80
48994;DHT22;34804;49.214;12.276;2022-07-03T05:59:47;15.30;82.80
48994;DHT22;34804;49.214;12.276;2022-07-03T06:02:14;15.40;82.30
48994;DHT22;34804;49.214;12.276;2022-07-03T06:04:41;15.60;81.80
48994;DHT22;34804;49.214;12.276;2022-07-03T06:07:08;15.70;81.60
48994;DHT22;34804;49.214;12.276;2022-07-03T06:09:34;15.80;82.10
48994;DHT22;34804;49.214;12.276;2022-07-03T06:12:01;16.00;81.40
48994;DHT22;34804;49.214;12.276;2022-07-03T06:14:28;16.10;81.10
48994;DHT22;34804;49.214;12.276;2022-07-03T06:16:55;16.30;80.40
48994;DHT22;34804;49.214;12.276;2022-07-03T06:19:22;16.40;80.50
48994;DHT22;34804;49.214;12.276;2022-07-03T06:21:48;16.60;79.60
48994;DHT22;34804;49.214;12.276;2022-07-03T06:24:15;16.80;77.70
48994;DHT22;34804;49.214;12.276;2022-07-03T06:26:42;16.90;77.70
48994;DHT22;34804;49.214;12.276;2022-07-03T06:29:09;17.10;77.20
48994;DHT22;34804;49.214;12.276;2022-07-03T06:31:36;17.20;76.30
48994;DHT22;34804;49.214;12.276;2022-07-03T06:34:03;17.40;76.70
48994;DHT22;34804;49.214;12.276;2022-07-03T06:36:29;17.50;75.90
48994;DHT22;34804;49.214;12.276;2022-07-03T06:38:56;17.60;76.00
48994;DHT22;34804;49.214;12.276;2022-07-03T06:41:23;17.80;75.30
48994;DHT22;34804;49.214;12.276;2022-07-03T06:43:50;18.00;75.70
48994;DHT22;34804;49.214;12.276;2022-07-03T06:46:17;18.10;73.90
48994;DHT22;34804;49.214;12.276;2022-07-03T06:48:44;18.20;73.60
48994;DHT22;34804;49.214;12.276;2022-07-03T06:51:10;18.30;71.70
48994;DHT22;34804;49.214;12.276;2022-07-03T06:53:42;18.40;71.40
48994;DHT22;34804;49.214;12.276;2022-07-03T06:56:09;18.60;73.10
48994;DHT22;34804;49.214;12.276;2022-07-03T06:58:36;18.80;72.20
48994;DHT22;34804;49.214;12.276;2022-07-03T07:01:03;18.90;70.60
48994;DHT22;34804;49.214;12.276;2022-07-03T07:03:29;19.10;70.60
48994;DHT22;34804;49.214;12.276;2022-07-03T07:05:57;19.30;71.40
48994;DHT22;34804;49.214;12.276;2022-07-03T07:08:24;19.40;71.80
48994;DHT22;34804;49.214;12.276;2022-07-03T07:10:51;19.50;70.70
48994;DHT22;34804;49.214;12.276;2022-07-03T07:13:17;19.70;70.30
48994;DHT22;34804;49.214;12.276;2022-07-03T07:15:44;19.80;68.70
48994;DHT22;34804;49.214;12.276;2022-07-03T07:18:11;19.90;68.70
48994;DHT22;34804;49.214;12.276;2022-07-03T07:20:38;20.00;67.10
48994;DHT22;34804;49.214;12.276;2022-07-03T07:23:05;20.10;67.50
48994;DHT22;34804;49.214;12.276;2022-07-03T07:25:32;20.30;67.30
48994;DHT22;34804;49.214;12.276;2022-07-03T07:27:58;20.40;67.30
48994;DHT22;34804;49.214;12.276;2022-07-03T07:30:25;20.60;65.60
48994;DHT22;34804;49.214;12.276;2022-07-03T07:32:52;20.70;64.70
48994;DHT22;34804;49.214;12.276;2022-07-03T07:35:20;20.80;64.80
48994;DHT22;34804;49.214;12.276;2022-07-03T07:37:47;21.10;65.90
48994;DHT22;34804;49.214;12.276;2022-07-03T07:40:15;21.20;63.50
48994;DHT22;34804;49.214;12.276;2022-07-03T07:42:41;21.40;64.40
48994;DHT22;34804;49.214;12.276;2022-07-03T07:45:12;21.50;63.90
48994;DHT22;34804;49.214;12.276;2022-07-03T07:47:40;21.50;62.40
48994;DHT22;34804;49.214;12.276;2022-07-03T07:50:07;21.60;62.00
48994;DHT22;34804;49.214;12.276;2022-07-03T07:52:34;21.80;61.50
48994;DHT22;34804;49.214;12.276;2022-07-03T07:55:01;21.90;61.80
48994;DHT22;34804;49.214;12.276;2022-07-03T07:57:38;22.00;61.10
48994;DHT22;34804;49.214;12.276;2022-07-03T08:00:10;22.20;62.30
48994;DHT22;34804;49.214;12.276;2022-07-03T08:02:38;22.40;60.60
48994;DHT22;34804;49.214;12.276;2022-07-03T08:05:24;22.50;60.60
48994;DHT22;34804;49.214;12.276;2022-07-03T08:08:13;22.60;60.60
48994;DHT22;34804;49.214;12.276;2022-07-03T08:10:48;22.80;58.30
48994;DHT22;34804;49.214;12.276;2022-07-03T08:13:19;22.80;57.30
48994;DHT22;34804;49.214;12.276;2022-07-03T08:15:46;22.80;60.20
48994;DHT22;34804;49.214;12.276;2022-07-03T08:18:16;22.90;57.80
48994;DHT22;34804;49.214;12.276;2022-07-03T08:20:43;22.90;57.60
48994;DHT22;34804;49.214;12.276;2022-07-03T08:23:09;23.10;56.90
48994;DHT22;34804;49.214;12.276;2022-07-03T08:25:36;23.20;56.90
48994;DHT22;34804;49.214;12.276;2022-07-03T08:28:03;23.30;57.80
48994;DHT22;34804;49.214;12.276;2022-07-03T08:30:30;23.30;56.40
48994;DHT22;34804;49.214;12.276;2022-07-03T08:32:58;23.50;57.20
48994;DHT22;34804;49.214;12.276;2022-07-03T08:35:25;23.60;54.90
48994;DHT22;34804;49.214;12.276;2022-07-03T08:37:53;23.60;55.70
48994;DHT22;34804;49.214;12.276;2022-07-03T08:40:21;23.70;56.40
48994;DHT22;34804;49.214;12.276;2022-07-03T08:42:49;23.80;55.90
48994;DHT22;34804;49.214;12.276;2022-07-03T08:45:18;23.90;56.60
48994;DHT22;34804;49.214;12.276;2022-07-03T08:47:47;24.00;57.50
48994;DHT22;34804;49.214;12.276;2022-07-03T08:50:16;24.00;56.80
48994;DHT22;34804;49.214;12.276;2022-07-03T08:52:46;24.20;59.90
48994;DHT22;34804;49.214;12.276;2022-07-03T08:55:14;24.30;56.20
48994;DHT22;34804;49.214;12.276;2022-07-03T08:57:42;24.30;56.70
48994;DHT22;34804;49.214;12.276;2022-07-03T09:00:12;24.50;55.70
48994;DHT22;34804;49.214;12.276;2022-07-03T09:02:41;24.40;53.40
48994;DHT22;34804;49.214;12.276;2022-07-03T09:05:11;24.40;55.60
48994;DHT22;34804;49.214;12.276;2022-07-03T09:07:43;24.50;54.60
48994;DHT22;34804;49.214;12.276;2022-07-03T09:10:13;24.70;54.20
48994;DHT22;34804;49.214;12.276;2022-07-03T09:12:45;24.70;54.00
48994;DHT22;34804;49.214;12.276;2022-07-03T09:15:12;24.90;54.80
48994;DHT22;34804;49.214;12.276;2022-07-03T09:17:40;24.90;54.40
48994;DHT22;34804;49.214;12.276;2022-07-03T09:20:07;25.00;54.70
48994;DHT22;34804;49.214;12.276;2022-07-03T09:22:36;25.10;54.50
48994;DHT22;34804;49.214;12.276;2022-07-03T09:27:35;25.20;53.90
48994;DHT22;34804;49.214;12.276;2022-07-03T09:30:06;25.20;55.60
48994;DHT22;34804;49.214;12.276;2022-07-03T09:35:26;25.40;55.00
48994;DHT22;34804;49.214;12.276;2022-07-03T09:37:58;25.60;53.30
48994;DHT22;34804;49.214;12.276;2022-07-03T09:40:28;25.70;54.10
48994;DHT22;34804;49.214;12.276;2022-07-03T09:43:12;25.90;53.00
48994;DHT22;34804;49.214;12.276;2022-07-03T09:48:26;25.80;50.40
48994;DHT22;34804;49.214;12.276;2022-07-03T09:51:21;25.90;55.40
48994;DHT22;34804;49.214;12.276;2022-07-03T09:53:56;25.90;54.10
48994;DHT22;34804;49.214;12.276;2022-07-03T09:56:27;26.00;53.10
48994;DHT22;34804;49.214;12.276;2022-07-03T10:01:35;26.40;55.40
48994;DHT22;34804;49.214;12.276;2022-07-03T10:07:00;26.70;51.90
48994;DHT22;34804;49.214;12.276;2022-07-03T10:09:29;26.80;54.10
48994;DHT22;34804;49.214;12.276;2022-07-03T10:11:57;26.80;51.30
48994;DHT22;34804;49.214;12.276;2022-07-03T10:14:30;26.90;50.90
48994;DHT22;34804;49.214;12.276;2022-07-03T10:16:58;26.90;50.20
48994;DHT22;34804;49.214;12.276;2022-07-03T10:19:29;26.90;47.60
48994;DHT22;34804;49.214;12.276;2022-07-03T10:22:00;26.80;45.60
48994;DHT22;34804;49.214;12.276;2022-07-03T10:24:29;26.80;49.70
48994;DHT22;34804;49.214;12.276;2022-07-03T10:26:57;27.00;50.30
48994;DHT22;34804;49.214;12.276;2022-07-03T10:29:26;26.90;47.70
48994;DHT22;34804;49.214;12.276;2022-07-03T10:31:56;27.00;47.60
48994;DHT22;34804;49.214;12.276;2022-07-03T10:34:24;27.20;46.30
48994;DHT22;34804;49.214;12.276;2022-07-03T10:37:03;27.30;46.40
48994;DHT22;34804;49.214;12.276;2022-07-03T10:39:55;27.40;44.80
48994;DHT22;34804;49.214;12.276;2022-07-03T10:42:45;27.40;43.80
48994;DHT22;34804;49.214;12.276;2022-07-03T10:45:33;27.40;43.10
48994;DHT22;34804;49.214;12.276;2022-07-03T10:48:00;27.80;42.60
48994;DHT22;34804;49.214;12.276;2022-07-03T10:50:27;27.80;41.40
48994;DHT22;34804;49.214;12.276;2022-07-03T10:53:32;27.80;43.30
48994;DHT22;34804;49.214;12.276;2022-07-03T10:56:03;28.10;44.30
48994;DHT22;34804;49.214;12.276;2022-07-03T10:58:30;28.10;43.90
48994;DHT22;34804;49.214;12.276;2022-07-03T11:00:59;28.10;41.80
48994;DHT22;34804;49.214;12.276;2022-07-03T11:03:57;28.20;43.60
48994;DHT22;34804;49.214;12.276;2022-07-03T11:07:07;28.20;41.30
48994;DHT22;34804;49.214;12.276;2022-07-03T11:09:34;27.80;43.00
48994;DHT22;34804;49.214;12.276;2022-07-03T11:12:01;27.80;45.30
48994;DHT22;34804;49.214;12.276;2022-07-03T11:14:29;28.10;43.00
48994;DHT22;34804;49.214;12.276;2022-07-03T11:17:18;28.20;40.90
48994;DHT22;34804;49.214;12.276;2022-07-03T11:19:47;28.50;42.10
48994;DHT22;34804;49.214;12.276;2022-07-03T11:22:56;28.70;41.80
48994;DHT22;34804;49.214;12.276;2022-07-03T11:25:25;28.90;39.80
48994;DHT22;34804;49.214;12.276;2022-07-03T11:27:52;28.70;42.80
48994;DHT22;34804;49.214;12.276;2022-07-03T11:30:19;28.40;41.90
48994;DHT22;34804;49.214;12.276;2022-07-03T11:32:54;27.80;43.20
48994;DHT22;34804;49.214;12.276;2022-07-03T11:35:44;27.50;44.00
48994;DHT22;34804;49.214;12.276;2022-07-03T11:38:17;27.60;43.90
48994;DHT22;34804;49.214;12.276;2022-07-03T11:40:45;28.00;44.50
48994;DHT22;34804;49.214;12.276;2022-07-03T11:43:14;28.60;45.30
48994;DHT22;34804;49.214;12.276;2022-07-03T11:45:41;28.80;43.70
48994;DHT22;34804;49.214;12.276;2022-07-03T11:48:11;29.00;42.30
48994;DHT22;34804;49.214;12.276;2022-07-03T11:50:44;29.30;43.10
48994;DHT22;34804;49.214;12.276;2022-07-03T11:53:23;29.40;42.70
48994;DHT22;34804;49.214;12.276;2022-07-03T11:58:51;29.20;43.50
48994;DHT22;34804;49.214;12.276;2022-07-03T12:04:21;29.80;39.60
48994;DHT22;34804;49.214;12.276;2022-07-03T12:06:56;29.90;40.00
48994;DHT22;34804;49.214;12.276;2022-07-03T12:09:26;30.00;39.70
48994;DHT22;34804;49.214;12.276;2022-07-03T12:14:51;29.40;41.20
48994;DHT22;34804;49.214;12.276;2022-07-03T12:17:25;29.70;40.90
48994;DHT22;34804;49.214;12.276;2022-07-03T12:19:55;29.20;41.20
48994;DHT22;34804;49.214;12.276;2022-07-03T12:22:40;29.20;40.20
48994;DHT22;34804;49.214;12.276;2022-07-03T12:25:10;29.40;40.60
48994;DHT22;34804;49.214;12.276;2022-07-03T12:27:39;29.90;43.70
48994;DHT22;34804;49.214;12.276;2022-07-03T12:30:08;30.40;42.90
48994;DHT22;34804;49.214;12.276;2022-07-03T12:32:39;30.80;40.20
48994;DHT22;34804;49.214;12.276;2022-07-03T12:35:06;30.70;38.40
48994;DHT22;34804;49.214;12.276;2022-07-03T12:37:38;30.40;39.60
48994;DHT22;34804;49.214;12.276;2022-07-03T12:40:09;30.20;38.40
48994;DHT22;34804;49.214;12.276;2022-07-03T12:42:48;30.30;38.40
48994;DHT22;34804;49.214;12.276;2022-07-03T12:45:17;31.30;40.60
48994;DHT22;34804;49.214;12.276;2022-07-03T12:47:44;32.00;37.00
48994;DHT22;34804;49.214;12.276;2022-07-03T12:50:12;31.50;37.20
48994;DHT22;34804;49.214;12.276;2022-07-03T12:52:52;31.40;37.50
48994;DHT22;34804;49.214;12.276;2022-07-03T12:58:16;30.30;36.80
48994;DHT22;34804;49.214;12.276;2022-07-03T13:01:32;30.10;37.20
48994;DHT22;34804;49.214;12.276;2022-07-03T13:04:06;30.60;36.90
48994;DHT22;34804;49.214;12.276;2022-07-03T13:06:35;30.70;37.20
48994;DHT22;34804;49.214;12.276;2022-07-03T13:09:03;29.90;37.60
48994;DHT22;34804;49.214;12.276;2022-07-03T13:11:33;29.70;40.00
48994;DHT22;34804;49.214;12.276;2022-07-03T13:14:14;31.00;39.10
48994;DHT22;34804;49.214;12.276;2022-07-03T13:16:42;32.30;34.90
48994;DHT22;34804;49.214;12.276;2022-07-03T13:19:17;33.30;31.70
48994;DHT22;34804;49.214;12.276;2022-07-03T13:21:45;33.10;31.70
48994;DHT22;34804;49.214;12.276;2022-07-03T13:24:14;32.40;33.20
48994;DHT22;34804;49.214;12.276;2022-07-03T13:26:42;31.20;34.30
48994;DHT22;34804;49.214;12.276;2022-07-03T13:29:09;31.70;34.10
48994;DHT22;34804;49.214;12.276;2022-07-03T13:31:36;32.30;33.70
48994;DHT22;34804;49.214;12.276;2022-07-03T13:34:03;33.50;34.00
48994;DHT22;34804;49.214;12.276;2022-07-03T13:36:32;34.20;31.20
48994;DHT22;34804;49.214;12.276;2022-07-03T13:38:58;34.60;30.30
48994;DHT22;34804;49.214;12.276;2022-07-03T13:41:26;35.20;30.00
48994;DHT22;34804;49.214;12.276;2022-07-03T13:43:53;35.50;30.60
48994;DHT22;34804;49.214;12.276;2022-07-03T13:46:21;35.50;28.70
48994;DHT22;34804;49.214;12.276;2022-07-03T13:48:50;34.30;29.70
48994;DHT22;34804;49.214;12.276;2022-07-03T13:51:17;32.80;34.00
48994;DHT22;34804;49.214;12.276;2022-07-03T13:53:45;31.80;34.60
48994;DHT22;34804;49.214;12.276;2022-07-03T13:56:14;32.80;34.70
48994;DHT22;34804;49.214;12.276;2022-07-03T13:58:41;34.10;34.50
48994;DHT22;34804;49.214;12.276;2022-07-03T14:01:13;33.30;31.90
48994;DHT22;34804;49.214;12.276;2022-07-03T14:03:39;32.20;34.90
48994;DHT22;34804;49.214;12.276;2022-07-03T14:06:06;31.90;35.40
48994;DHT22;34804;49.214;12.276;2022-07-03T14:08:33;31.60;34.40
48994;DHT22;34804;49.214;12.276;2022-07-03T14:11:00;32.30;34.20
48994;DHT22;34804;49.214;12.276;2022-07-03T14:13:27;33.30;31.70
48994;DHT22;34804;49.214;12.276;2022-07-03T14:15:54;34.00;31.60
48994;DHT22;34804;49.214;12.276;2022-07-03T14:18:21;33.70;33.00
48994;DHT22;34804;49.214;12.276;2022-07-03T14:20:47;34.40;30.80
48994;DHT22;34804;49.214;12.276;2022-07-03T14:23:14;34.10;31.40
48994;DHT22;34804;49.214;12.276;2022-07-03T14:25:41;32.70;31.50
48994;DHT22;34804;49.214;12.276;2022-07-03T14:28:08;33.50;32.30
48994;DHT22;34804;49.214;12.276;2022-07-03T14:30:53;34.80;30.40
48994;DHT22;34804;49.214;12.276;2022-07-03T14:33:39;35.20;29.50
48994;DHT22;34804;49.214;12.276;2022-07-03T14:36:05;35.60;27.90
48994;DHT22;34804;49.214;12.276;2022-07-03T14:38:39;35.80;27.70
48994;DHT22;34804;49.214;12.276;2022-07-03T14:41:06;36.40;26.80
48994;DHT22;34804;49.214;12.276;2022-07-03T14:43:33;36.50;26.50
48994;DHT22;34804;49.214;12.276;2022-07-03T14:46:00;36.30;27.40
48994;DHT22;34804;49.214;12.276;2022-07-03T14:48:27;36.60;25.00
48994;DHT22;34804;49.214;12.276;2022-07-03T14:50:54;37.10;26.30
48994;DHT22;34804;49.214;12.276;2022-07-03T14:53:22;36.40;27.40
48994;DHT22;34804;49.214;12.276;2022-07-03T14:55:49;35.70;27.10
48994;DHT22;34804;49.214;12.276;2022-07-03T14:58:20;35.70;27.00
48994;DHT22;34804;49.214;12.276;2022-07-03T15:00:52;36.10;27.70
48994;DHT22;34804;49.214;12.276;2022-07-03T15:05:57;36.10;26.60
48994;DHT22;34804;49.214;12.276;2022-07-03T15:11:02;35.40;27.60
48994;DHT22;34804;49.214;12.276;2022-07-03T15:13:33;33.40;28.80
48994;DHT22;34804;49.214;12.276;2022-07-03T15:16:00;32.20;28.90
48994;DHT22;34804;49.214;12.276;2022-07-03T15:18:29;32.40;30.50
48994;DHT22;34804;49.214;12.276;2022-07-03T15:20:56;33.30;31.00
48994;DHT22;34804;49.214;12.276;2022-07-03T15:23:25;34.00;29.20
48994;DHT22;34804;49.214;12.276;2022-07-03T15:25:54;34.60;28.60
48994;DHT22;34804;49.214;12.276;2022-07-03T15:28:22;35.10;29.50
48994;DHT22;34804;49.214;12.276;2022-07-03T15:30:53;35.30;28.80
48994;DHT22;34804;49.214;12.276;2022-07-03T15:33:23;35.90;28.20
48994;DHT22;34804;49.214;12.276;2022-07-03T15:35:58;35.40;28.00
48994;DHT22;34804;49.214;12.276;2022-07-03T15:38:34;35.50;26.50
48994;DHT22;34804;49.214;12.276;2022-07-03T15:41:02;36.20;26.40
48994;DHT22;34804;49.214;12.276;2022-07-03T15:43:57;35.50;26.50
48994;DHT22;34804;49.214;12.276;2022-07-03T15:49:27;35.70;25.50
48994;DHT22;34804;49.214;12.276;2022-07-03T15:54:52;35.60;25.20
48994;DHT22;34804;49.214;12.276;2022-07-03T15:57:44;36.00;25.10
48994;DHT22;34804;49.214;12.276;2022-07-03T16:00:15;36.80;24.40
48994;DHT22;34804;49.214;12.276;2022-07-03T16:03:12;36.80;25.30
48994;DHT22;34804;49.214;12.276;2022-07-03T16:05:42;36.20;23.90
48994;DHT22;34804;49.214;12.276;2022-07-03T16:08:12;35.80;24.20
48994;DHT22;34804;49.214;12.276;2022-07-03T16:10:40;35.80;20.70
48994;DHT22;34804;49.214;12.276;2022-07-03T16:13:08;35.20;22.40
48994;DHT22;34804;49.214;12.276;2022-07-03T16:15:40;35.50;21.50
48994;DHT22;34804;49.214;12.276;2022-07-03T16:18:10;35.80;23.00
48994;DHT22;34804;49.214;12.276;2022-07-03T16:20:38;36.50;20.80
48994;DHT22;34804;49.214;12.276;2022-07-03T16:23:08;37.10;21.40
48994;DHT22;34804;49.214;12.276;2022-07-03T16:25:36;37.70;22.20
48994;DHT22;34804;49.214;12.276;2022-07-03T16:28:06;38.50;20.50
48994;DHT22;34804;49.214;12.276;2022-07-03T16:30:40;38.90;20.80
48994;DHT22;34804;49.214;12.276;2022-07-03T16:33:10;39.20;22.50
48994;DHT22;34804;49.214;12.276;2022-07-03T16:35:43;39.00;20.70
48994;DHT22;34804;49.214;12.276;2022-07-03T16:38:18;38.80;21.50
48994;DHT22;34804;49.214;12.276;2022-07-03T16:40:47;38.50;21.50
48994;DHT22;34804;49.214;12.276;2022-07-03T16:43:19;38.30;21.60